sensor_id;sensor_type;location;lat;lon;timestamp;P1;durP1;ratioP1;P2;durP2;ratioP2
41713;SDS011;27401;47.384;13.666;2023-05-24T00:01:50;4.32;;;2.03;;
41713;SDS011;27401;47.384;13.666;2023-05-24T00:04:15;2.50;;;2.30;;
41713;SDS011;27401;47.384;13.666;2023-05-24T00:06:42;2.45;;;2.25;;
41713;SDS011;27401;47.384;13.666;2023-05-24T00:09:09;3.53;;;2.72;;
41713;SDS011;27401;47.384;13.666;2023-05-24T00:11:35;3.63;;;2.40;;
41713;SDS011;27401;47.384;13.666;2023-05-24T00:14:01;3.83;;;2.28;;
41713;SDS011;27401;47.384;13.666;2023-05-24T00:16:27;4.45;;;2.50;;
41713;SDS011;27401;47.384;13.666;2023-05-24T00:18:52;3.08;;;2.58;;
41713;SDS011;27401;47.384;13.666;2023-05-24T00:21:19;4.05;;;2.47;;
41713;SDS011;27401;47.384;13.666;2023-05-24T00:23:44;2.88;;;2.15;;
41713;SDS011;27401;47.384;13.666;2023-05-24T00:26:11;3.45;;;1.92;;
41713;SDS011;27401;47.384;13.666;2023-05-24T00:28:41;2.60;;;2.40;;
41713;SDS011;27401;47.384;13.666;2023-05-24T00:31:07;2.95;;;2.08;;
41713;SDS011;27401;47.384;13.666;2023-05-24T00:33:33;2.50;;;2.30;;
41713;SDS011;27401;47.384;13.666;2023-05-24T00:35:58;3.72;;;2.50;;
41713;SDS011;27401;47.384;13.666;2023-05-24T00:38:24;3.08;;;2.15;;
41713;SDS011;27401;47.384;13.666;2023-05-24T00:40:51;2.90;;;2.28;;
41713;SDS011;27401;47.384;13.666;2023-05-24T00:43:20;4.18;;;2.40;;
41713;SDS011;27401;47.384;13.666;2023-05-24T00:45:46;3.00;;;2.70;;
41713;SDS011;27401;47.384;13.666;2023-05-24T00:48:12;3.88;;;2.63;;
41713;SDS011;27401;47.384;13.666;2023-05-24T00:50:38;3.65;;;3.00;;
41713;SDS011;27401;47.384;13.666;2023-05-24T00:53:05;5.00;;;2.53;;
41713;SDS011;27401;47.384;13.666;2023-05-24T00:55:31;3.40;;;3.10;;
41713;SDS011;27401;47.384;13.666;2023-05-24T00:57:58;2.78;;;2.58;;
41713;SDS011;27401;47.384;13.666;2023-05-24T01:00:24;2.50;;;2.30;;
41713;SDS011;27401;47.384;13.666;2023-05-24T01:02:51;2.88;;;2.55;;
41713;SDS011;27401;47.384;13.666;2023-05-24T01:05:17;4.65;;;3.80;;
41713;SDS011;27401;47.384;13.666;2023-05-24T01:19:24;3.25;;;2.72;;
41713;SDS011;27401;47.384;13.666;2023-05-24T01:27:42;3.30;;;2.60;;
41713;SDS011;27401;47.384;13.666;2023-05-24T01:30:07;2.72;;;2.22;;
41713;SDS011;27401;47.384;13.666;2023-05-24T01:32:33;2.78;;;1.98;;
41713;SDS011;27401;47.384;13.666;2023-05-24T01:34:59;2.35;;;2.15;;
41713;SDS011;27401;47.384;13.666;2023-05-24T01:37:25;3.28;;;2.25;;
41713;SDS011;27401;47.384;13.666;2023-05-24T01:39:50;2.75;;;2.53;;
41713;SDS011;27401;47.384;13.666;2023-05-24T01:42:25;4.82;;;3.13;;
41713;SDS011;27401;47.384;13.666;2023-05-24T01:50:59;3.00;;;2.70;;
41713;SDS011;27401;47.384;13.666;2023-05-24T01:53:27;2.80;;;2.60;;
41713;SDS011;27401;47.384;13.666;2023-05-24T01:58:23;2.70;;;2.50;;
41713;SDS011;27401;47.384;13.666;2023-05-24T02:00:50;2.55;;;2.35;;
41713;SDS011;27401;47.384;13.666;2023-05-24T02:03:16;2.70;;;2.50;;
41713;SDS011;27401;47.384;13.666;2023-05-24T02:05:42;2.58;;;2.38;;
41713;SDS011;27401;47.384;13.666;2023-05-24T02:08:10;4.32;;;2.00;;
41713;SDS011;27401;47.384;13.666;2023-05-24T02:10:37;2.08;;;1.85;;
41713;SDS011;27401;47.384;13.666;2023-05-24T02:13:04;1.70;;;1.60;;
41713;SDS011;27401;47.384;13.666;2023-05-24T02:15:31;1.65;;;1.55;;
41713;SDS011;27401;47.384;13.666;2023-05-24T02:17:57;3.15;;;2.05;;
41713;SDS011;27401;47.384;13.666;2023-05-24T02:20:26;1.90;;;1.80;;
41713;SDS011;27401;47.384;13.666;2023-05-24T02:22:55;2.88;;;2.17;;
41713;SDS011;27401;47.384;13.666;2023-05-24T02:25:24;2.67;;;2.17;;
41713;SDS011;27401;47.384;13.666;2023-05-24T02:27:50;2.58;;;2.30;;
41713;SDS011;27401;47.384;13.666;2023-05-24T02:30:16;3.05;;;2.00;;
41713;SDS011;27401;47.384;13.666;2023-05-24T02:32:42;4.03;;;2.30;;
41713;SDS011;27401;47.384;13.666;2023-05-24T02:35:08;2.40;;;2.20;;
41713;SDS011;27401;47.384;13.666;2023-05-24T02:37:33;3.53;;;2.10;;
41713;SDS011;27401;47.384;13.666;2023-05-24T02:39:59;1.88;;;1.70;;
41713;SDS011;27401;47.384;13.666;2023-05-24T02:42:24;4.03;;;1.67;;
41713;SDS011;27401;47.384;13.666;2023-05-24T02:44:50;1.98;;;1.80;;
41713;SDS011;27401;47.384;13.666;2023-05-24T02:47:19;1.88;;;1.63;;
41713;SDS011;27401;47.384;13.666;2023-05-24T02:49:45;2.78;;;1.67;;
41713;SDS011;27401;47.384;13.666;2023-05-24T02:52:11;1.55;;;1.27;;
41713;SDS011;27401;47.384;13.666;2023-05-24T02:54:38;1.75;;;1.15;;
41713;SDS011;27401;47.384;13.666;2023-05-24T02:57:04;1.75;;;1.65;;
41713;SDS011;27401;47.384;13.666;2023-05-24T02:59:31;1.60;;;1.50;;
41713;SDS011;27401;47.384;13.666;2023-05-24T03:02:00;1.73;;;1.50;;
41713;SDS011;27401;47.384;13.666;2023-05-24T03:04:26;1.77;;;1.60;;
41713;SDS011;27401;47.384;13.666;2023-05-24T03:06:52;1.52;;;1.42;;
41713;SDS011;27401;47.384;13.666;2023-05-24T03:09:18;1.70;;;1.60;;
41713;SDS011;27401;47.384;13.666;2023-05-24T03:11:44;2.15;;;1.20;;
41713;SDS011;27401;47.384;13.666;2023-05-24T03:14:09;0.80;;;0.80;;
41713;SDS011;27401;47.384;13.666;2023-05-24T03:16:38;2.85;;;1.48;;
41713;SDS011;27401;47.384;13.666;2023-05-24T03:19:03;1.45;;;1.23;;
41713;SDS011;27401;47.384;13.666;2023-05-24T03:21:30;1.13;;;1.02;;
41713;SDS011;27401;47.384;13.666;2023-05-24T03:23:56;1.90;;;1.35;;
41713;SDS011;27401;47.384;13.666;2023-05-24T03:26:22;1.95;;;1.40;;
41713;SDS011;27401;47.384;13.666;2023-05-24T03:28:47;1.30;;;1.20;;
41713;SDS011;27401;47.384;13.666;2023-05-24T03:31:17;2.42;;;1.63;;
41713;SDS011;27401;47.384;13.666;2023-05-24T03:33:46;1.80;;;1.25;;
41713;SDS011;27401;47.384;13.666;2023-05-24T03:36:12;2.15;;;1.63;;
41713;SDS011;27401;47.384;13.666;2023-05-24T03:38:37;2.20;;;1.98;;
41713;SDS011;27401;47.384;13.666;2023-05-24T03:41:03;2.45;;;2.25;;
41713;SDS011;27401;47.384;13.666;2023-05-24T03:43:28;2.95;;;2.45;;
41713;SDS011;27401;47.384;13.666;2023-05-24T03:45:56;3.22;;;2.92;;
41713;SDS011;27401;47.384;13.666;2023-05-24T03:48:23;3.78;;;3.40;;
41713;SDS011;27401;47.384;13.666;2023-05-24T03:50:50;3.58;;;3.08;;
41713;SDS011;27401;47.384;13.666;2023-05-24T03:53:16;2.20;;;2.00;;
41713;SDS011;27401;47.384;13.666;2023-05-24T03:55:41;2.22;;;2.10;;
41713;SDS011;27401;47.384;13.666;2023-05-24T03:58:07;3.50;;;3.17;;
41713;SDS011;27401;47.384;13.666;2023-05-24T04:00:33;1.75;;;1.65;;
41713;SDS011;27401;47.384;13.666;2023-05-24T04:03:00;2.25;;;1.60;;
41713;SDS011;27401;47.384;13.666;2023-05-24T04:05:27;1.70;;;1.60;;
41713;SDS011;27401;47.384;13.666;2023-05-24T04:07:54;2.85;;;1.58;;
41713;SDS011;27401;47.384;13.666;2023-05-24T04:10:20;1.63;;;1.30;;
41713;SDS011;27401;47.384;13.666;2023-05-24T04:12:47;1.70;;;1.60;;
41713;SDS011;27401;47.384;13.666;2023-05-24T04:15:13;2.35;;;1.98;;
41713;SDS011;27401;47.384;13.666;2023-05-24T04:17:43;1.50;;;1.40;;
41713;SDS011;27401;47.384;13.666;2023-05-24T04:20:09;1.17;;;1.08;;
41713;SDS011;27401;47.384;13.666;2023-05-24T04:22:36;2.15;;;1.40;;
41713;SDS011;27401;47.384;13.666;2023-05-24T04:25:02;1.30;;;1.20;;
41713;SDS011;27401;47.384;13.666;2023-05-24T04:27:30;1.10;;;1.10;;
41713;SDS011;27401;47.384;13.666;2023-05-24T04:29:55;1.70;;;1.10;;
41713;SDS011;27401;47.384;13.666;2023-05-24T04:32:21;1.85;;;1.42;;
41713;SDS011;27401;47.384;13.666;2023-05-24T04:34:50;1.48;;;1.38;;
41713;SDS011;27401;47.384;13.666;2023-05-24T04:37:17;2.42;;;1.15;;
41713;SDS011;27401;47.384;13.666;2023-05-24T04:39:44;1.30;;;1.20;;
41713;SDS011;27401;47.384;13.666;2023-05-24T04:42:14;1.85;;;1.20;;
41713;SDS011;27401;47.384;13.666;2023-05-24T04:44:40;1.10;;;0.98;;
41713;SDS011;27401;47.384;13.666;2023-05-24T04:47:06;4.07;;;1.05;;
41713;SDS011;27401;47.384;13.666;2023-05-24T04:49:31;4.82;;;1.90;;
41713;SDS011;27401;47.384;13.666;2023-05-24T04:51:57;2.50;;;1.55;;
41713;SDS011;27401;47.384;13.666;2023-05-24T04:54:22;2.30;;;1.50;;
41713;SDS011;27401;47.384;13.666;2023-05-24T04:56:48;1.63;;;1.25;;
41713;SDS011;27401;47.384;13.666;2023-05-24T04:59:14;1.17;;;1.08;;
41713;SDS011;27401;47.384;13.666;2023-05-24T05:01:39;2.55;;;1.20;;
41713;SDS011;27401;47.384;13.666;2023-05-24T05:04:05;1.20;;;1.10;;
41713;SDS011;27401;47.384;13.666;2023-05-24T05:06:31;2.00;;;1.52;;
41713;SDS011;27401;47.384;13.666;2023-05-24T05:08:59;1.42;;;1.33;;
41713;SDS011;27401;47.384;13.666;2023-05-24T05:11:25;1.58;;;1.13;;
41713;SDS011;27401;47.384;13.666;2023-05-24T05:13:51;2.00;;;1.90;;
41713;SDS011;27401;47.384;13.666;2023-05-24T05:16:18;2.40;;;1.73;;
41713;SDS011;27401;47.384;13.666;2023-05-24T05:18:44;2.38;;;2.17;;
41713;SDS011;27401;47.384;13.666;2023-05-24T05:21:10;2.95;;;2.75;;
41713;SDS011;27401;47.384;13.666;2023-05-24T05:23:36;5.97;;;5.47;;
41713;SDS011;27401;47.384;13.666;2023-05-24T05:26:04;6.70;;;6.00;;
41713;SDS011;27401;47.384;13.666;2023-05-24T05:28:31;6.25;;;5.65;;
41713;SDS011;27401;47.384;13.666;2023-05-24T05:30:57;6.15;;;5.63;;
41713;SDS011;27401;47.384;13.666;2023-05-24T05:33:22;6.10;;;5.55;;
41713;SDS011;27401;47.384;13.666;2023-05-24T05:35:48;4.47;;;4.07;;
41713;SDS011;27401;47.384;13.666;2023-05-24T05:38:14;5.90;;;5.40;;
41713;SDS011;27401;47.384;13.666;2023-05-24T05:40:39;6.78;;;5.78;;
41713;SDS011;27401;47.384;13.666;2023-05-24T05:43:05;4.95;;;4.55;;
41713;SDS011;27401;47.384;13.666;2023-05-24T05:45:32;6.13;;;5.55;;
41713;SDS011;27401;47.384;13.666;2023-05-24T05:47:58;8.15;;;7.35;;
41713;SDS011;27401;47.384;13.666;2023-05-24T05:50:23;6.53;;;6.00;;
41713;SDS011;27401;47.384;13.666;2023-05-24T05:52:49;7.88;;;6.88;;
41713;SDS011;27401;47.384;13.666;2023-05-24T05:55:15;7.43;;;6.68;;
41713;SDS011;27401;47.384;13.666;2023-05-24T05:57:40;7.30;;;6.60;;
41713;SDS011;27401;47.384;13.666;2023-05-24T06:00:07;9.23;;;8.18;;
41713;SDS011;27401;47.384;13.666;2023-05-24T06:02:40;7.25;;;6.63;;
41713;SDS011;27401;47.384;13.666;2023-05-24T06:05:06;8.10;;;7.30;;
41713;SDS011;27401;47.384;13.666;2023-05-24T06:07:31;8.15;;;7.07;;
41713;SDS011;27401;47.384;13.666;2023-05-24T06:09:58;6.68;;;6.07;;
41713;SDS011;27401;47.384;13.666;2023-05-24T06:12:24;7.43;;;6.65;;
41713;SDS011;27401;47.384;13.666;2023-05-24T06:14:50;17.30;;;12.65;;
41713;SDS011;27401;47.384;13.666;2023-05-24T06:17:16;19.45;;;17.35;;
41713;SDS011;27401;47.384;13.666;2023-05-24T06:19:51;25.35;;;21.20;;
41713;SDS011;27401;47.384;13.666;2023-05-24T06:22:18;11.93;;;10.75;;
41713;SDS011;27401;47.384;13.666;2023-05-24T06:24:50;6.85;;;6.20;;
41713;SDS011;27401;47.384;13.666;2023-05-24T06:27:16;6.53;;;5.93;;
41713;SDS011;27401;47.384;13.666;2023-05-24T06:29:42;5.28;;;4.82;;
41713;SDS011;27401;47.384;13.666;2023-05-24T06:32:07;5.00;;;4.60;;
41713;SDS011;27401;47.384;13.666;2023-05-24T06:34:33;3.78;;;3.47;;
41713;SDS011;27401;47.384;13.666;2023-05-24T06:36:59;3.92;;;3.63;;
41713;SDS011;27401;47.384;13.666;2023-05-24T06:39:24;7.35;;;5.18;;
41713;SDS011;27401;47.384;13.666;2023-05-24T06:41:50;7.40;;;6.70;;
41713;SDS011;27401;47.384;13.666;2023-05-24T06:44:22;5.47;;;4.97;;
41713;SDS011;27401;47.384;13.666;2023-05-24T06:46:48;5.10;;;4.50;;
41713;SDS011;27401;47.384;13.666;2023-05-24T06:49:13;5.32;;;4.82;;
41713;SDS011;27401;47.384;13.666;2023-05-24T06:51:39;6.18;;;4.10;;
41713;SDS011;27401;47.384;13.666;2023-05-24T06:54:05;5.18;;;4.78;;
41713;SDS011;27401;47.384;13.666;2023-05-24T06:56:31;4.95;;;4.55;;
41713;SDS011;27401;47.384;13.666;2023-05-24T06:58:57;4.25;;;3.95;;
41713;SDS011;27401;47.384;13.666;2023-05-24T07:01:23;3.92;;;3.30;;
41713;SDS011;27401;47.384;13.666;2023-05-24T07:03:48;4.35;;;3.95;;
41713;SDS011;27401;47.384;13.666;2023-05-24T07:06:14;5.05;;;4.57;;
41713;SDS011;27401;47.384;13.666;2023-05-24T07:08:40;5.03;;;3.42;;
41713;SDS011;27401;47.384;13.666;2023-05-24T07:11:06;3.67;;;3.38;;
41713;SDS011;27401;47.384;13.666;2023-05-24T07:13:32;3.15;;;2.85;;
41713;SDS011;27401;47.384;13.666;2023-05-24T07:15:58;2.88;;;2.67;;
41713;SDS011;27401;47.384;13.666;2023-05-24T07:18:24;4.00;;;3.60;;
41713;SDS011;27401;47.384;13.666;2023-05-24T07:20:49;4.38;;;3.97;;
41713;SDS011;27401;47.384;13.666;2023-05-24T07:23:15;5.25;;;3.58;;
41713;SDS011;27401;47.384;13.666;2023-05-24T07:25:41;3.65;;;3.25;;
41713;SDS011;27401;47.384;13.666;2023-05-24T07:28:07;4.38;;;3.65;;
41713;SDS011;27401;47.384;13.666;2023-05-24T07:30:32;2.70;;;2.50;;
41713;SDS011;27401;47.384;13.666;2023-05-24T07:32:59;2.78;;;2.58;;
41713;SDS011;27401;47.384;13.666;2023-05-24T07:35:25;3.83;;;2.88;;
41713;SDS011;27401;47.384;13.666;2023-05-24T07:37:51;5.97;;;4.60;;
41713;SDS011;27401;47.384;13.666;2023-05-24T07:40:16;4.70;;;4.30;;
41713;SDS011;27401;47.384;13.666;2023-05-24T07:42:42;4.30;;;4.00;;
41713;SDS011;27401;47.384;13.666;2023-05-24T07:45:08;4.22;;;3.92;;
41713;SDS011;27401;47.384;13.666;2023-05-24T07:47:35;7.72;;;7.03;;
41713;SDS011;27401;47.384;13.666;2023-05-24T07:50:01;8.25;;;6.18;;
41713;SDS011;27401;47.384;13.666;2023-05-24T07:52:27;4.47;;;4.13;;
41713;SDS011;27401;47.384;13.666;2023-05-24T07:54:53;5.07;;;4.68;;
41713;SDS011;27401;47.384;13.666;2023-05-24T07:57:19;5.55;;;4.55;;
41713;SDS011;27401;47.384;13.666;2023-05-24T07:59:45;4.72;;;4.32;;
41713;SDS011;27401;47.384;13.666;2023-05-24T08:02:10;6.57;;;4.75;;
41713;SDS011;27401;47.384;13.666;2023-05-24T08:04:41;4.35;;;3.97;;
41713;SDS011;27401;47.384;13.666;2023-05-24T08:07:07;3.97;;;3.67;;
41713;SDS011;27401;47.384;13.666;2023-05-24T08:09:33;3.45;;;3.25;;
41713;SDS011;27401;47.384;13.666;2023-05-24T08:12:06;3.45;;;2.88;;
41713;SDS011;27401;47.384;13.666;2023-05-24T08:14:32;3.92;;;3.58;;
41713;SDS011;27401;47.384;13.666;2023-05-24T08:16:58;3.35;;;3.08;;
41713;SDS011;27401;47.384;13.666;2023-05-24T08:19:25;5.22;;;3.08;;
41713;SDS011;27401;47.384;13.666;2023-05-24T08:21:51;4.32;;;3.13;;
41713;SDS011;27401;47.384;13.666;2023-05-24T08:24:19;3.63;;;3.33;;
41713;SDS011;27401;47.384;13.666;2023-05-24T08:26:44;3.10;;;2.90;;
41713;SDS011;27401;47.384;13.666;2023-05-24T08:29:10;3.95;;;3.65;;
41713;SDS011;27401;47.384;13.666;2023-05-24T08:31:36;3.58;;;3.28;;
41713;SDS011;27401;47.384;13.666;2023-05-24T08:34:02;3.58;;;3.28;;
41713;SDS011;27401;47.384;13.666;2023-05-24T08:36:28;3.47;;;3.20;;
41713;SDS011;27401;47.384;13.666;2023-05-24T08:38:54;3.67;;;3.38;;
41713;SDS011;27401;47.384;13.666;2023-05-24T08:41:20;3.85;;;3.50;;
41713;SDS011;27401;47.384;13.666;2023-05-24T08:43:46;3.72;;;3.42;;
41713;SDS011;27401;47.384;13.666;2023-05-24T08:46:13;3.92;;;3.60;;
41713;SDS011;27401;47.384;13.666;2023-05-24T08:48:44;4.18;;;3.80;;
41713;SDS011;27401;47.384;13.666;2023-05-24T08:51:14;4.53;;;4.13;;
41713;SDS011;27401;47.384;13.666;2023-05-24T08:53:40;4.47;;;3.53;;
41713;SDS011;27401;47.384;13.666;2023-05-24T08:56:06;2.92;;;2.72;;
41713;SDS011;27401;47.384;13.666;2023-05-24T08:58:34;3.40;;;3.10;;
41713;SDS011;27401;47.384;13.666;2023-05-24T09:01:02;3.40;;;3.20;;
41713;SDS011;27401;47.384;13.666;2023-05-24T09:03:29;3.22;;;2.65;;
41713;SDS011;27401;47.384;13.666;2023-05-24T09:05:55;4.50;;;3.67;;
41713;SDS011;27401;47.384;13.666;2023-05-24T09:08:20;3.10;;;2.90;;
41713;SDS011;27401;47.384;13.666;2023-05-24T09:10:47;3.08;;;2.88;;
41713;SDS011;27401;47.384;13.666;2023-05-24T09:13:12;6.43;;;3.97;;
41713;SDS011;27401;47.384;13.666;2023-05-24T09:15:39;3.40;;;3.20;;
41713;SDS011;27401;47.384;13.666;2023-05-24T09:18:05;3.28;;;3.08;;
41713;SDS011;27401;47.384;13.666;2023-05-24T09:20:30;4.07;;;3.67;;
41713;SDS011;27401;47.384;13.666;2023-05-24T09:22:56;4.57;;;3.92;;
41713;SDS011;27401;47.384;13.666;2023-05-24T09:25:23;4.07;;;3.75;;
41713;SDS011;27401;47.384;13.666;2023-05-24T09:27:52;4.82;;;4.43;;
41713;SDS011;27401;47.384;13.666;2023-05-24T09:30:18;5.65;;;5.15;;
41713;SDS011;27401;47.384;13.666;2023-05-24T09:32:54;10.13;;;8.85;;
41713;SDS011;27401;47.384;13.666;2023-05-24T09:35:25;13.90;;;12.43;;
41713;SDS011;27401;47.384;13.666;2023-05-24T09:37:53;5.05;;;4.65;;
41713;SDS011;27401;47.384;13.666;2023-05-24T09:40:21;6.13;;;5.05;;
41713;SDS011;27401;47.384;13.666;2023-05-24T09:42:47;4.30;;;3.42;;
41713;SDS011;27401;47.384;13.666;2023-05-24T09:45:16;2.92;;;2.72;;
41713;SDS011;27401;47.384;13.666;2023-05-24T09:47:42;2.90;;;2.70;;
41713;SDS011;27401;47.384;13.666;2023-05-24T09:50:11;3.08;;;2.88;;
41713;SDS011;27401;47.384;13.666;2023-05-24T09:52:38;3.50;;;3.20;;
41713;SDS011;27401;47.384;13.666;2023-05-24T09:55:15;3.88;;;3.45;;
41713;SDS011;27401;47.384;13.666;2023-05-24T09:57:44;4.03;;;3.00;;
41713;SDS011;27401;47.384;13.666;2023-05-24T10:00:14;5.13;;;4.65;;
41713;SDS011;27401;47.384;13.666;2023-05-24T10:02:46;4.78;;;4.30;;
41713;SDS011;27401;47.384;13.666;2023-05-24T10:05:28;3.85;;;3.50;;
41713;SDS011;27401;47.384;13.666;2023-05-24T10:07:54;4.65;;;2.95;;
41713;SDS011;27401;47.384;13.666;2023-05-24T10:10:29;4.25;;;3.95;;
41713;SDS011;27401;47.384;13.666;2023-05-24T10:12:55;5.03;;;3.78;;
41713;SDS011;27401;47.384;13.666;2023-05-24T10:15:22;4.18;;;3.38;;
41713;SDS011;27401;47.384;13.666;2023-05-24T10:17:47;4.28;;;3.88;;
41713;SDS011;27401;47.384;13.666;2023-05-24T10:20:13;6.22;;;4.03;;
41713;SDS011;27401;47.384;13.666;2023-05-24T10:22:42;3.22;;;2.92;;
41713;SDS011;27401;47.384;13.666;2023-05-24T10:25:10;29.25;;;23.30;;
41713;SDS011;27401;47.384;13.666;2023-05-24T10:27:40;11.82;;;10.48;;
41713;SDS011;27401;47.384;13.666;2023-05-24T10:32:34;4.80;;;3.90;;
41713;SDS011;27401;47.384;13.666;2023-05-24T10:35:02;3.60;;;3.17;;
41713;SDS011;27401;47.384;13.666;2023-05-24T10:37:29;3.53;;;3.22;;
41713;SDS011;27401;47.384;13.666;2023-05-24T10:39:56;3.00;;;2.78;;
41713;SDS011;27401;47.384;13.666;2023-05-24T10:42:23;2.50;;;2.30;;
41713;SDS011;27401;47.384;13.666;2023-05-24T10:44:48;2.40;;;2.20;;
41713;SDS011;27401;47.384;13.666;2023-05-24T10:47:14;2.95;;;2.28;;
41713;SDS011;27401;47.384;13.666;2023-05-24T10:49:48;2.60;;;2.15;;
41713;SDS011;27401;47.384;13.666;2023-05-24T10:52:32;2.47;;;2.30;;
41713;SDS011;27401;47.384;13.666;2023-05-24T10:55:06;2.15;;;1.95;;
41713;SDS011;27401;47.384;13.666;2023-05-24T10:57:37;2.00;;;1.90;;
41713;SDS011;27401;47.384;13.666;2023-05-24T11:03:06;1.60;;;1.50;;
41713;SDS011;27401;47.384;13.666;2023-05-24T11:08:12;2.47;;;2.25;;
41713;SDS011;27401;47.384;13.666;2023-05-24T11:10:37;3.08;;;2.17;;
41713;SDS011;27401;47.384;13.666;2023-05-24T11:13:06;2.72;;;2.58;;
41713;SDS011;27401;47.384;13.666;2023-05-24T11:15:32;3.80;;;3.33;;
41713;SDS011;27401;47.384;13.666;2023-05-24T11:20:34;13.75;;;10.20;;
41713;SDS011;27401;47.384;13.666;2023-05-24T11:23:03;10.02;;;8.95;;
41713;SDS011;27401;47.384;13.666;2023-05-24T11:25:34;5.60;;;4.60;;
41713;SDS011;27401;47.384;13.666;2023-05-24T11:28:05;4.07;;;3.67;;
41713;SDS011;27401;47.384;13.666;2023-05-24T11:30:32;3.90;;;3.60;;
41713;SDS011;27401;47.384;13.666;2023-05-24T11:32:58;4.53;;;4.20;;
41713;SDS011;27401;47.384;13.666;2023-05-24T11:35:25;4.78;;;4.20;;
41713;SDS011;27401;47.384;13.666;2023-05-24T11:37:57;4.45;;;4.07;;
41713;SDS011;27401;47.384;13.666;2023-05-24T11:40:23;3.33;;;3.13;;
41713;SDS011;27401;47.384;13.666;2023-05-24T11:42:50;3.83;;;3.53;;
41713;SDS011;27401;47.384;13.666;2023-05-24T11:45:16;4.30;;;3.80;;
41713;SDS011;27401;47.384;13.666;2023-05-24T11:47:43;3.25;;;2.80;;
41713;SDS011;27401;47.384;13.666;2023-05-24T11:50:09;3.50;;;3.20;;
41713;SDS011;27401;47.384;13.666;2023-05-24T11:52:39;3.00;;;2.80;;
41713;SDS011;27401;47.384;13.666;2023-05-24T11:55:05;2.15;;;1.95;;
41713;SDS011;27401;47.384;13.666;2023-05-24T11:57:38;2.90;;;2.60;;
41713;SDS011;27401;47.384;13.666;2023-05-24T12:00:07;3.15;;;2.95;;
41713;SDS011;27401;47.384;13.666;2023-05-24T12:02:35;2.58;;;2.38;;
41713;SDS011;27401;47.384;13.666;2023-05-24T12:05:06;3.10;;;2.85;;
41713;SDS011;27401;47.384;13.666;2023-05-24T12:07:33;4.90;;;3.47;;
41713;SDS011;27401;47.384;13.666;2023-05-24T12:10:00;2.38;;;2.17;;
41713;SDS011;27401;47.384;13.666;2023-05-24T12:12:28;2.70;;;2.50;;
41713;SDS011;27401;47.384;13.666;2023-05-24T12:14:54;3.03;;;2.72;;
41713;SDS011;27401;47.384;13.666;2023-05-24T12:17:20;3.00;;;2.80;;
41713;SDS011;27401;47.384;13.666;2023-05-24T12:19:47;2.35;;;2.15;;
41713;SDS011;27401;47.384;13.666;2023-05-24T12:22:14;3.47;;;2.50;;
41713;SDS011;27401;47.384;13.666;2023-05-24T12:24:39;2.00;;;1.90;;
41713;SDS011;27401;47.384;13.666;2023-05-24T12:27:06;2.17;;;2.08;;
41713;SDS011;27401;47.384;13.666;2023-05-24T12:29:36;2.50;;;2.03;;
41713;SDS011;27401;47.384;13.666;2023-05-24T12:34:31;13.18;;;10.65;;
41713;SDS011;27401;47.384;13.666;2023-05-24T12:36:56;12.38;;;10.60;;
41713;SDS011;27401;47.384;13.666;2023-05-24T12:39:24;3.58;;;2.22;;
41713;SDS011;27401;47.384;13.666;2023-05-24T12:41:59;1.67;;;1.58;;
41713;SDS011;27401;47.384;13.666;2023-05-24T12:44:30;3.53;;;2.85;;
41713;SDS011;27401;47.384;13.666;2023-05-24T12:46:58;4.07;;;3.75;;
41713;SDS011;27401;47.384;13.666;2023-05-24T12:49:25;5.47;;;3.80;;
41713;SDS011;27401;47.384;13.666;2023-05-24T12:51:52;2.10;;;1.90;;
41713;SDS011;27401;47.384;13.666;2023-05-24T12:54:19;3.88;;;3.58;;
41713;SDS011;27401;47.384;13.666;2023-05-24T12:56:46;3.60;;;2.22;;
41713;SDS011;27401;47.384;13.666;2023-05-24T12:59:12;2.03;;;1.70;;
41713;SDS011;27401;47.384;13.666;2023-05-24T13:01:38;1.35;;;1.25;;
41713;SDS011;27401;47.384;13.666;2023-05-24T13:04:03;1.30;;;1.20;;
41713;SDS011;27401;47.384;13.666;2023-05-24T13:06:29;1.05;;;1.05;;
41713;SDS011;27401;47.384;13.666;2023-05-24T13:08:55;1.50;;;1.40;;
41713;SDS011;27401;47.384;13.666;2023-05-24T13:11:20;4.32;;;1.52;;
41713;SDS011;27401;47.384;13.666;2023-05-24T13:13:47;2.28;;;1.33;;
41713;SDS011;27401;47.384;13.666;2023-05-24T13:16:13;1.90;;;1.70;;
41713;SDS011;27401;47.384;13.666;2023-05-24T13:18:38;2.47;;;1.98;;
41713;SDS011;27401;47.384;13.666;2023-05-24T13:21:04;2.42;;;1.73;;
41713;SDS011;27401;47.384;13.666;2023-05-24T13:23:30;1.70;;;1.60;;
41713;SDS011;27401;47.384;13.666;2023-05-24T13:25:57;2.35;;;1.80;;
41713;SDS011;27401;47.384;13.666;2023-05-24T13:28:22;3.65;;;2.10;;
41713;SDS011;27401;47.384;13.666;2023-05-24T13:30:48;2.65;;;1.90;;
41713;SDS011;27401;47.384;13.666;2023-05-24T13:33:14;4.55;;;4.15;;
41713;SDS011;27401;47.384;13.666;2023-05-24T13:35:40;3.90;;;2.67;;
41713;SDS011;27401;47.384;13.666;2023-05-24T13:38:05;2.75;;;2.55;;
41713;SDS011;27401;47.384;13.666;2023-05-24T13:40:32;3.40;;;1.70;;
41713;SDS011;27401;47.384;13.666;2023-05-24T13:42:58;1.85;;;1.75;;
41713;SDS011;27401;47.384;13.666;2023-05-24T13:45:23;1.63;;;1.52;;
41713;SDS011;27401;47.384;13.666;2023-05-24T13:47:49;2.08;;;1.98;;
41713;SDS011;27401;47.384;13.666;2023-05-24T13:50:16;3.22;;;2.13;;
41713;SDS011;27401;47.384;13.666;2023-05-24T13:52:42;1.70;;;1.60;;
41713;SDS011;27401;47.384;13.666;2023-05-24T13:55:07;1.55;;;1.45;;
41713;SDS011;27401;47.384;13.666;2023-05-24T13:57:33;2.00;;;1.90;;
41713;SDS011;27401;47.384;13.666;2023-05-24T13:59:59;19.17;;;15.90;;
41713;SDS011;27401;47.384;13.666;2023-05-24T14:02:25;2.65;;;2.45;;
41713;SDS011;27401;47.384;13.666;2023-05-24T14:04:51;2.13;;;1.90;;
41713;SDS011;27401;47.384;13.666;2023-05-24T14:07:17;3.17;;;2.20;;
41713;SDS011;27401;47.384;13.666;2023-05-24T14:09:43;2.13;;;1.80;;
41713;SDS011;27401;47.384;13.666;2023-05-24T14:12:08;2.42;;;2.10;;
41713;SDS011;27401;47.384;13.666;2023-05-24T14:14:34;3.83;;;2.30;;
41713;SDS011;27401;47.384;13.666;2023-05-24T14:17:00;3.28;;;2.47;;
41713;SDS011;27401;47.384;13.666;2023-05-24T14:19:26;2.33;;;2.00;;
41713;SDS011;27401;47.384;13.666;2023-05-24T14:21:51;2.60;;;2.17;;
41713;SDS011;27401;47.384;13.666;2023-05-24T14:24:17;2.85;;;2.17;;
41713;SDS011;27401;47.384;13.666;2023-05-24T14:26:42;2.28;;;2.17;;
41713;SDS011;27401;47.384;13.666;2023-05-24T14:29:11;2.78;;;2.58;;
41713;SDS011;27401;47.384;13.666;2023-05-24T14:31:36;2.97;;;2.55;;
41713;SDS011;27401;47.384;13.666;2023-05-24T14:34:07;4.45;;;2.35;;
41713;SDS011;27401;47.384;13.666;2023-05-24T14:36:34;2.40;;;2.20;;
41713;SDS011;27401;47.384;13.666;2023-05-24T14:38:59;2.22;;;2.03;;
41713;SDS011;27401;47.384;13.666;2023-05-24T14:41:25;2.85;;;2.30;;
41713;SDS011;27401;47.384;13.666;2023-05-24T14:43:50;2.33;;;2.13;;
41713;SDS011;27401;47.384;13.666;2023-05-24T14:46:16;6.05;;;5.55;;
41713;SDS011;27401;47.384;13.666;2023-05-24T14:48:42;2.90;;;2.70;;
41713;SDS011;27401;47.384;13.666;2023-05-24T14:51:07;2.35;;;2.15;;
41713;SDS011;27401;47.384;13.666;2023-05-24T14:53:33;2.30;;;2.15;;
41713;SDS011;27401;47.384;13.666;2023-05-24T14:55:58;3.78;;;2.05;;
41713;SDS011;27401;47.384;13.666;2023-05-24T14:58:24;6.40;;;5.45;;
41713;SDS011;27401;47.384;13.666;2023-05-24T15:00:51;4.97;;;3.97;;
41713;SDS011;27401;47.384;13.666;2023-05-24T15:03:16;3.55;;;3.25;;
41713;SDS011;27401;47.384;13.666;2023-05-24T15:05:42;5.85;;;5.35;;
41713;SDS011;27401;47.384;13.666;2023-05-24T15:08:08;7.43;;;6.68;;
41713;SDS011;27401;47.384;13.666;2023-05-24T15:10:35;4.53;;;4.13;;